sensor_id;sensor_type;location;lat;lon;timestamp;pressure;altitude;pressure_sealevel;temperature;humidity
69223;BME280;56514;51.816;-0.026;2023-03-14T00:00:37;98070.00;;;11.68;74.56
69223;BME280;56514;51.816;-0.026;2023-03-14T00:03:43;98067.72;;;11.65;74.96
69223;BME280;56514;51.816;-0.026;2023-03-14T00:06:52;98078.16;;;11.81;75.29
69223;BME280;56514;51.816;-0.026;2023-03-14T00:09:57;98069.69;;;11.55;76.08
69223;BME280;56514;51.816;-0.026;2023-03-14T00:13:06;98069.06;;;11.53;77.12
69223;BME280;56514;51.816;-0.026;2023-03-14T00:16:15;98060.19;;;11.46;77.91
69223;BME280;56514;51.816;-0.026;2023-03-14T00:19:24;98068.28;;;11.45;78.39
69223;BME280;56514;51.816;-0.026;2023-03-14T00:22:37;98062.19;;;11.44;78.32
69223;BME280;56514;51.816;-0.026;2023-03-14T00:25:46;98064.88;;;11.36;78.74
69223;BME280;56514;51.816;-0.026;2023-03-14T00:28:55;98065.09;;;11.27;79.75
69223;BME280;56514;51.816;-0.026;2023-03-14T00:32:04;98071.97;;;11.36;79.23
69223;BME280;56514;51.816;-0.026;2023-03-14T00:34:49;98072.09;;;11.42;79.47
69223;BME280;56514;51.816;-0.026;2023-03-14T00:37:37;98077.38;;;11.42;79.20
69223;BME280;56514;51.816;-0.026;2023-03-14T00:40:23;98087.28;;;11.40;79.72
69223;BME280;56514;51.816;-0.026;2023-03-14T00:43:08;98111.03;;;11.40;79.86
69223;BME280;56514;51.816;-0.026;2023-03-14T00:45:52;98184.34;;;11.22;80.82
69223;BME280;56514;51.816;-0.026;2023-03-14T00:48:38;98177.00;;;10.86;80.23
69223;BME280;56514;51.816;-0.026;2023-03-14T00:51:23;98201.91;;;10.43;80.62
69223;BME280;56514;51.816;-0.026;2023-03-14T00:54:09;98201.88;;;10.11;80.81
69223;BME280;56514;51.816;-0.026;2023-03-14T00:56:53;98210.69;;;9.94;81.70
69223;BME280;56514;51.816;-0.026;2023-03-14T00:59:39;98226.13;;;9.81;83.17
69223;BME280;56514;51.816;-0.026;2023-03-14T01:02:24;98226.13;;;9.81;82.49
69223;BME280;56514;51.816;-0.026;2023-03-14T01:05:09;98234.59;;;9.51;83.22
69223;BME280;56514;51.816;-0.026;2023-03-14T01:07:57;98238.59;;;9.37;83.64
69223;BME280;56514;51.816;-0.026;2023-03-14T01:10:42;98249.88;;;9.22;84.15
69223;BME280;56514;51.816;-0.026;2023-03-14T01:13:28;98270.53;;;8.91;84.06
69223;BME280;56514;51.816;-0.026;2023-03-14T01:16:14;98275.31;;;8.70;83.17
69223;BME280;56514;51.816;-0.026;2023-03-14T01:18:58;98288.13;;;8.55;83.77
69223;BME280;56514;51.816;-0.026;2023-03-14T01:21:43;98301.19;;;8.47;83.29
69223;BME280;56514;51.816;-0.026;2023-03-14T01:24:28;98311.69;;;8.47;83.47
69223;BME280;56514;51.816;-0.026;2023-03-14T01:27:13;98324.47;;;8.42;82.67
69223;BME280;56514;51.816;-0.026;2023-03-14T01:29:58;98328.84;;;8.24;83.52
69223;BME280;56514;51.816;-0.026;2023-03-14T01:32:43;98330.22;;;8.28;83.25
69223;BME280;56514;51.816;-0.026;2023-03-14T01:35:28;98337.50;;;8.34;82.93
69223;BME280;56514;51.816;-0.026;2023-03-14T01:38:13;98344.16;;;8.29;83.79
69223;BME280;56514;51.816;-0.026;2023-03-14T01:40:58;98352.50;;;8.24;82.56
69223;BME280;56514;51.816;-0.026;2023-03-14T01:43:44;98365.50;;;8.16;82.76
69223;BME280;56514;51.816;-0.026;2023-03-14T01:46:37;98357.19;;;8.21;81.96
69223;BME280;56514;51.816;-0.026;2023-03-14T01:49:29;98369.81;;;8.08;82.57
69223;BME280;56514;51.816;-0.026;2023-03-14T01:52:20;98377.81;;;8.16;82.56
69223;BME280;56514;51.816;-0.026;2023-03-14T01:55:13;98381.31;;;8.07;82.83
69223;BME280;56514;51.816;-0.026;2023-03-14T01:58:03;98389.41;;;8.23;82.64
69223;BME280;56514;51.816;-0.026;2023-03-14T02:00:48;98395.06;;;8.18;81.53
69223;BME280;56514;51.816;-0.026;2023-03-14T02:03:38;98395.19;;;8.17;81.16
69223;BME280;56514;51.816;-0.026;2023-03-14T02:06:34;98408.03;;;8.20;80.74
69223;BME280;56514;51.816;-0.026;2023-03-14T02:09:23;98419.66;;;8.17;81.01
69223;BME280;56514;51.816;-0.026;2023-03-14T02:12:09;98419.66;;;8.27;80.52
69223;BME280;56514;51.816;-0.026;2023-03-14T02:14:56;98430.72;;;8.21;81.37
69223;BME280;56514;51.816;-0.026;2023-03-14T02:17:42;98427.53;;;8.27;80.29
69223;BME280;56514;51.816;-0.026;2023-03-14T02:20:52;98449.25;;;8.19;80.36
69223;BME280;56514;51.816;-0.026;2023-03-14T02:27:11;98455.16;;;8.21;76.72
69223;BME280;56514;51.816;-0.026;2023-03-14T02:30:01;98474.88;;;7.98;76.75
69223;BME280;56514;51.816;-0.026;2023-03-14T02:32:52;98459.59;;;7.75;76.80
69223;BME280;56514;51.816;-0.026;2023-03-14T02:35:51;98453.00;;;7.52;77.60
69223;BME280;56514;51.816;-0.026;2023-03-14T02:38:47;98470.69;;;7.40;78.37
69223;BME280;56514;51.816;-0.026;2023-03-14T02:41:36;98479.69;;;7.28;78.68
69223;BME280;56514;51.816;-0.026;2023-03-14T02:44:21;98486.41;;;7.31;78.34
69223;BME280;56514;51.816;-0.026;2023-03-14T02:47:06;98492.50;;;7.31;76.90
69223;BME280;56514;51.816;-0.026;2023-03-14T02:49:53;98505.19;;;7.26;77.15
69223;BME280;56514;51.816;-0.026;2023-03-14T02:52:41;98513.44;;;7.12;77.23
69223;BME280;56514;51.816;-0.026;2023-03-14T02:55:26;98512.75;;;7.10;77.06
69223;BME280;56514;51.816;-0.026;2023-03-14T02:58:11;98530.84;;;7.13;76.24
69223;BME280;56514;51.816;-0.026;2023-03-14T03:00:56;98536.88;;;7.04;76.88
69223;BME280;56514;51.816;-0.026;2023-03-14T03:03:41;98547.22;;;7.05;76.49
69223;BME280;56514;51.816;-0.026;2023-03-14T03:06:25;98571.13;;;7.12;75.66
69223;BME280;56514;51.816;-0.026;2023-03-14T03:09:10;98569.75;;;7.08;76.22
69223;BME280;56514;51.816;-0.026;2023-03-14T03:11:55;98580.53;;;7.14;75.59
69223;BME280;56514;51.816;-0.026;2023-03-14T03:14:40;98581.19;;;7.16;75.49
69223;BME280;56514;51.816;-0.026;2023-03-14T03:17:25;98585.56;;;6.97;76.19
69223;BME280;56514;51.816;-0.026;2023-03-14T03:20:10;98591.50;;;6.99;74.81
69223;BME280;56514;51.816;-0.026;2023-03-14T03:22:55;98594.31;;;6.77;75.84
69223;BME280;56514;51.816;-0.026;2023-03-14T03:25:40;98610.44;;;6.72;75.98
69223;BME280;56514;51.816;-0.026;2023-03-14T03:28:25;98606.09;;;6.82;74.46
69223;BME280;56514;51.816;-0.026;2023-03-14T03:31:11;98614.88;;;6.81;73.93
69223;BME280;56514;51.816;-0.026;2023-03-14T03:33:57;98629.53;;;6.84;74.01
69223;BME280;56514;51.816;-0.026;2023-03-14T03:36:42;98650.19;;;6.77;73.38
69223;BME280;56514;51.816;-0.026;2023-03-14T03:39:26;98635.31;;;6.78;72.48
69223;BME280;56514;51.816;-0.026;2023-03-14T03:42:11;98651.16;;;6.76;72.25
69223;BME280;56514;51.816;-0.026;2023-03-14T03:44:56;98659.69;;;6.78;72.24
69223;BME280;56514;51.816;-0.026;2023-03-14T03:47:40;98655.09;;;6.71;71.98
69223;BME280;56514;51.816;-0.026;2023-03-14T03:50:25;98667.75;;;6.66;72.20
69223;BME280;56514;51.816;-0.026;2023-03-14T03:53:10;98675.31;;;6.59;72.00
69223;BME280;56514;51.816;-0.026;2023-03-14T03:55:55;98692.63;;;6.71;70.31
69223;BME280;56514;51.816;-0.026;2023-03-14T03:58:40;98678.34;;;6.64;71.52
69223;BME280;56514;51.816;-0.026;2023-03-14T04:01:26;98697.47;;;6.55;71.20
69223;BME280;56514;51.816;-0.026;2023-03-14T04:04:11;98694.03;;;6.55;71.19
69223;BME280;56514;51.816;-0.026;2023-03-14T04:06:57;98694.09;;;6.44;71.43
69223;BME280;56514;51.816;-0.026;2023-03-14T04:09:41;98706.38;;;6.64;69.71
69223;BME280;56514;51.816;-0.026;2023-03-14T04:12:26;98701.00;;;6.65;70.41
69223;BME280;56514;51.816;-0.026;2023-03-14T04:15:11;98722.50;;;6.69;70.23
69223;BME280;56514;51.816;-0.026;2023-03-14T04:17:57;98724.19;;;6.70;68.92
69223;BME280;56514;51.816;-0.026;2023-03-14T04:20:43;98721.38;;;6.62;69.94
69223;BME280;56514;51.816;-0.026;2023-03-14T04:23:28;98730.56;;;6.56;69.64
69223;BME280;56514;51.816;-0.026;2023-03-14T04:26:13;98737.72;;;6.54;70.54
69223;BME280;56514;51.816;-0.026;2023-03-14T04:28:58;98757.03;;;6.53;70.29
69223;BME280;56514;51.816;-0.026;2023-03-14T04:31:43;98759.19;;;6.48;71.17
69223;BME280;56514;51.816;-0.026;2023-03-14T04:34:28;98770.94;;;6.54;70.35
69223;BME280;56514;51.816;-0.026;2023-03-14T04:37:13;98769.78;;;6.67;68.82
69223;BME280;56514;51.816;-0.026;2023-03-14T04:39:57;98789.69;;;6.70;67.68
69223;BME280;56514;51.816;-0.026;2023-03-14T04:42:42;98790.81;;;6.56;67.34
69223;BME280;56514;51.816;-0.026;2023-03-14T04:45:27;98786.25;;;6.58;66.87
69223;BME280;56514;51.816;-0.026;2023-03-14T04:48:12;98825.16;;;6.42;67.92
69223;BME280;56514;51.816;-0.026;2023-03-14T04:50:58;98811.72;;;6.36;67.88
69223;BME280;56514;51.816;-0.026;2023-03-14T04:53:44;98814.59;;;6.22;68.57
69223;BME280;56514;51.816;-0.026;2023-03-14T04:56:29;98819.78;;;6.12;68.86
69223;BME280;56514;51.816;-0.026;2023-03-14T04:59:14;98830.72;;;6.06;69.22
69223;BME280;56514;51.816;-0.026;2023-03-14T05:01:59;98839.38;;;6.18;68.13
69223;BME280;56514;51.816;-0.026;2023-03-14T05:04:44;98834.53;;;6.02;68.69
69223;BME280;56514;51.816;-0.026;2023-03-14T05:07:29;98844.38;;;6.10;67.60
69223;BME280;56514;51.816;-0.026;2023-03-14T05:10:13;98853.69;;;5.92;69.15
69223;BME280;56514;51.816;-0.026;2023-03-14T05:12:58;98856.53;;;6.00;67.40
69223;BME280;56514;51.816;-0.026;2023-03-14T05:15:43;98864.50;;;5.98;66.64
69223;BME280;56514;51.816;-0.026;2023-03-14T05:18:28;98872.97;;;6.02;66.16
69223;BME280;56514;51.816;-0.026;2023-03-14T05:21:13;98859.88;;;6.02;66.00
69223;BME280;56514;51.816;-0.026;2023-03-14T05:23:58;98869.28;;;5.93;65.92
69223;BME280;56514;51.816;-0.026;2023-03-14T05:26:43;98862.75;;;5.88;66.95
69223;BME280;56514;51.816;-0.026;2023-03-14T05:29:28;98879.50;;;5.96;66.61
69223;BME280;56514;51.816;-0.026;2023-03-14T05:32:13;98896.03;;;5.97;65.07
69223;BME280;56514;51.816;-0.026;2023-03-14T05:34:59;98899.63;;;5.96;65.80
69223;BME280;56514;51.816;-0.026;2023-03-14T05:37:44;98896.53;;;6.02;65.71
69223;BME280;56514;51.816;-0.026;2023-03-14T05:40:29;98903.63;;;6.22;63.89
69223;BME280;56514;51.816;-0.026;2023-03-14T05:43:13;98910.78;;;6.20;64.56
69223;BME280;56514;51.816;-0.026;2023-03-14T05:45:59;98921.38;;;6.18;65.04
69223;BME280;56514;51.816;-0.026;2023-03-14T05:48:44;98930.28;;;6.16;65.44
69223;BME280;56514;51.816;-0.026;2023-03-14T05:51:29;98935.75;;;6.13;65.37
69223;BME280;56514;51.816;-0.026;2023-03-14T05:54:13;98946.69;;;6.07;66.00
69223;BME280;56514;51.816;-0.026;2023-03-14T05:56:58;98963.00;;;6.21;64.55
69223;BME280;56514;51.816;-0.026;2023-03-14T05:59:43;98962.28;;;6.19;64.93
69223;BME280;56514;51.816;-0.026;2023-03-14T06:02:28;98957.16;;;6.07;65.79
69223;BME280;56514;51.816;-0.026;2023-03-14T06:05:12;98978.81;;;6.09;65.53
69223;BME280;56514;51.816;-0.026;2023-03-14T06:07:57;98988.56;;;6.07;65.79
69223;BME280;56514;51.816;-0.026;2023-03-14T06:10:42;98989.75;;;5.92;67.38
69223;BME280;56514;51.816;-0.026;2023-03-14T06:13:27;98994.66;;;6.07;65.96
69223;BME280;56514;51.816;-0.026;2023-03-14T06:16:12;99001.78;;;5.94;67.28
69223;BME280;56514;51.816;-0.026;2023-03-14T06:18:57;99005.25;;;6.06;66.92
69223;BME280;56514;51.816;-0.026;2023-03-14T06:21:42;99030.72;;;6.15;66.17
69223;BME280;56514;51.816;-0.026;2023-03-14T06:24:27;99032.25;;;6.06;67.21
69223;BME280;56514;51.816;-0.026;2023-03-14T06:27:12;99043.81;;;6.26;66.19
69223;BME280;56514;51.816;-0.026;2023-03-14T06:29:57;99055.44;;;6.22;67.06
69223;BME280;56514;51.816;-0.026;2023-03-14T06:32:41;99059.41;;;6.27;66.58
69223;BME280;56514;51.816;-0.026;2023-03-14T06:35:26;99069.84;;;6.16;68.07
69223;BME280;56514;51.816;-0.026;2023-03-14T06:38:11;99091.31;;;6.32;67.54
69223;BME280;56514;51.816;-0.026;2023-03-14T06:40:56;99100.44;;;6.27;68.21
69223;BME280;56514;51.816;-0.026;2023-03-14T06:43:47;99113.50;;;6.16;69.86
69223;BME280;56514;51.816;-0.026;2023-03-14T06:46:32;99127.53;;;6.04;70.68
69223;BME280;56514;51.816;-0.026;2023-03-14T06:49:17;99143.97;;;5.82;72.07
69223;BME280;56514;51.816;-0.026;2023-03-14T06:52:01;99145.16;;;5.55;73.29
69223;BME280;56514;51.816;-0.026;2023-03-14T06:54:47;99161.81;;;5.41;75.08
69223;BME280;56514;51.816;-0.026;2023-03-14T06:57:32;99168.66;;;5.31;75.19
69223;BME280;56514;51.816;-0.026;2023-03-14T07:00:17;99180.41;;;5.13;77.12
69223;BME280;56514;51.816;-0.026;2023-03-14T07:03:02;99183.88;;;5.13;76.98
69223;BME280;56514;51.816;-0.026;2023-03-14T07:05:47;99200.97;;;5.17;77.06
69223;BME280;56514;51.816;-0.026;2023-03-14T07:08:32;99206.66;;;5.11;77.14
69223;BME280;56514;51.816;-0.026;2023-03-14T07:11:17;99218.97;;;4.97;77.84
69223;BME280;56514;51.816;-0.026;2023-03-14T07:14:02;99231.00;;;4.99;78.26
69223;BME280;56514;51.816;-0.026;2023-03-14T07:16:47;99237.91;;;4.88;78.78
69223;BME280;56514;51.816;-0.026;2023-03-14T07:19:32;99248.97;;;4.91;79.48
69223;BME280;56514;51.816;-0.026;2023-03-14T07:22:16;99261.94;;;4.93;79.50
69223;BME280;56514;51.816;-0.026;2023-03-14T07:25:01;99274.91;;;5.07;79.42
69223;BME280;56514;51.816;-0.026;2023-03-14T07:27:46;99277.09;;;5.00;80.07
69223;BME280;56514;51.816;-0.026;2023-03-14T07:30:36;99288.69;;;5.09;80.43
69223;BME280;56514;51.816;-0.026;2023-03-14T07:33:22;99310.66;;;5.19;80.75
69223;BME280;56514;51.816;-0.026;2023-03-14T07:36:07;99311.09;;;5.25;80.24
69223;BME280;56514;51.816;-0.026;2023-03-14T07:38:52;99325.16;;;5.10;80.65
69223;BME280;56514;51.816;-0.026;2023-03-14T07:41:37;99335.81;;;5.07;81.86
69223;BME280;56514;51.816;-0.026;2023-03-14T07:44:22;99353.41;;;5.05;81.63
69223;BME280;56514;51.816;-0.026;2023-03-14T07:47:08;99361.75;;;5.10;81.88
69223;BME280;56514;51.816;-0.026;2023-03-14T07:49:53;99375.16;;;5.18;82.58
69223;BME280;56514;51.816;-0.026;2023-03-14T07:52:38;99378.72;;;5.17;82.04
69223;BME280;56514;51.816;-0.026;2023-03-14T07:55:22;99405.81;;;5.16;82.40
69223;BME280;56514;51.816;-0.026;2023-03-14T07:58:07;99416.56;;;5.24;82.02
69223;BME280;56514;51.816;-0.026;2023-03-14T08:00:52;99426.06;;;5.13;81.57
69223;BME280;56514;51.816;-0.026;2023-03-14T08:03:37;99437.44;;;5.12;81.96
69223;BME280;56514;51.816;-0.026;2023-03-14T08:06:22;99448.19;;;5.07;81.49
69223;BME280;56514;51.816;-0.026;2023-03-14T08:09:07;99467.50;;;4.92;81.80
69223;BME280;56514;51.816;-0.026;2023-03-14T08:11:52;99469.25;;;4.79;80.83
69223;BME280;56514;51.816;-0.026;2023-03-14T08:14:37;99488.03;;;4.72;81.55
69223;BME280;56514;51.816;-0.026;2023-03-14T08:17:21;99501.19;;;4.56;81.84
69223;BME280;56514;51.816;-0.026;2023-03-14T08:20:06;99506.22;;;4.59;81.29
69223;BME280;56514;51.816;-0.026;2023-03-14T08:22:55;99526.75;;;4.51;81.87
69223;BME280;56514;51.816;-0.026;2023-03-14T08:25:41;99530.59;;;4.46;81.05
69223;BME280;56514;51.816;-0.026;2023-03-14T08:28:26;99540.38;;;4.56;80.68
69223;BME280;56514;51.816;-0.026;2023-03-14T08:31:16;99554.00;;;4.47;80.92
69223;BME280;56514;51.816;-0.026;2023-03-14T08:34:02;99572.06;;;4.36;81.92
69223;BME280;56514;51.816;-0.026;2023-03-14T08:36:47;99576.00;;;4.29;82.37
69223;BME280;56514;51.816;-0.026;2023-03-14T08:39:32;99581.78;;;4.48;81.99
69223;BME280;56514;51.816;-0.026;2023-03-14T08:42:17;99593.81;;;4.51;82.22
69223;BME280;56514;51.816;-0.026;2023-03-14T08:45:02;99609.56;;;4.49;83.17
69223;BME280;56514;51.816;-0.026;2023-03-14T08:47:47;99618.03;;;4.53;83.32
69223;BME280;56514;51.816;-0.026;2023-03-14T08:50:32;99631.38;;;4.62;83.47
69223;BME280;56514;51.816;-0.026;2023-03-14T08:53:18;99637.53;;;4.89;83.25
69223;BME280;56514;51.816;-0.026;2023-03-14T08:56:03;99646.63;;;5.10;82.72
69223;BME280;56514;51.816;-0.026;2023-03-14T08:58:50;99650.94;;;5.25;82.71
69223;BME280;56514;51.816;-0.026;2023-03-14T09:01:35;99669.03;;;5.28;82.22
69223;BME280;56514;51.816;-0.026;2023-03-14T09:04:20;99678.34;;;5.32;82.42
69223;BME280;56514;51.816;-0.026;2023-03-14T09:07:05;99690.88;;;5.27;81.71
69223;BME280;56514;51.816;-0.026;2023-03-14T09:09:50;99699.47;;;5.29;81.66
69223;BME280;56514;51.816;-0.026;2023-03-14T09:12:37;99713.44;;;5.42;81.60
69223;BME280;56514;51.816;-0.026;2023-03-14T09:15:22;99723.56;;;5.34;81.13
69223;BME280;56514;51.816;-0.026;2023-03-14T09:18:07;99725.78;;;5.26;80.70
69223;BME280;56514;51.816;-0.026;2023-03-14T09:20:51;99748.47;;;5.26;80.63
69223;BME280;56514;51.816;-0.026;2023-03-14T09:23:38;99744.28;;;5.23;81.11
69223;BME280;56514;51.816;-0.026;2023-03-14T09:26:23;99765.00;;;5.26;80.79
69223;BME280;56514;51.816;-0.026;2023-03-14T09:29:08;99775.38;;;5.42;80.53
69223;BME280;56514;51.816;-0.026;2023-03-14T09:31:53;99783.75;;;5.47;80.07
69223;BME280;56514;51.816;-0.026;2023-03-14T09:34:38;99784.97;;;5.41;80.29
69223;BME280;56514;51.816;-0.026;2023-03-14T09:37:23;99796.72;;;5.48;80.97
69223;BME280;56514;51.816;-0.026;2023-03-14T09:40:13;99804.50;;;5.50;80.41
69223;BME280;56514;51.816;-0.026;2023-03-14T09:42:59;99810.19;;;5.57;80.63
69223;BME280;56514;51.816;-0.026;2023-03-14T09:45:46;99815.63;;;5.82;80.58
69223;BME280;56514;51.816;-0.026;2023-03-14T09:48:32;99823.56;;;6.21;80.54
69223;BME280;56514;51.816;-0.026;2023-03-14T09:51:20;99828.75;;;6.74;80.71
69223;BME280;56514;51.816;-0.026;2023-03-14T09:54:38;99842.22;;;7.19;79.52
69223;BME280;56514;51.816;-0.026;2023-03-14T09:57:24;99829.44;;;7.40;78.06
69223;BME280;56514;51.816;-0.026;2023-03-14T10:00:21;99841.28;;;7.33;76.32
69223;BME280;56514;51.816;-0.026;2023-03-14T10:03:19;99846.03;;;7.28;76.14
69223;BME280;56514;51.816;-0.026;2023-03-14T10:06:11;99847.66;;;7.16;75.96
69223;BME280;56514;51.816;-0.026;2023-03-14T10:08:57;99856.06;;;7.22;75.90
69223;BME280;56514;51.816;-0.026;2023-03-14T10:11:42;99859.44;;;7.24;75.77
69223;BME280;56514;51.816;-0.026;2023-03-14T10:14:34;99866.16;;;7.40;75.67
69223;BME280;56514;51.816;-0.026;2023-03-14T10:17:20;99873.09;;;7.54;75.95
69223;BME280;56514;51.816;-0.026;2023-03-14T10:20:06;99874.75;;;7.55;75.37
69223;BME280;56514;51.816;-0.026;2023-03-14T10:22:55;99893.34;;;7.77;74.82
69223;BME280;56514;51.816;-0.026;2023-03-14T10:25:46;99911.06;;;7.86;74.64
69223;BME280;56514;51.816;-0.026;2023-03-14T10:28:36;99914.13;;;7.80;74.16
69223;BME280;56514;51.816;-0.026;2023-03-14T10:31:25;99926.19;;;7.82;74.12
69223;BME280;56514;51.816;-0.026;2023-03-14T10:34:16;99929.25;;;7.89;74.08
69223;BME280;56514;51.816;-0.026;2023-03-14T10:37:21;99940.78;;;7.86;73.56
69223;BME280;56514;51.816;-0.026;2023-03-14T10:40:13;99950.66;;;7.70;73.69
69223;BME280;56514;51.816;-0.026;2023-03-14T10:43:00;99953.38;;;7.69;75.21
69223;BME280;56514;51.816;-0.026;2023-03-14T10:45:51;99968.63;;;7.76;75.26
69223;BME280;56514;51.816;-0.026;2023-03-14T10:48:38;99973.75;;;7.78;74.81
69223;BME280;56514;51.816;-0.026;2023-03-14T10:51:28;99985.41;;;7.61;74.40
69223;BME280;56514;51.816;-0.026;2023-03-14T10:54:19;99986.06;;;7.90;75.16
69223;BME280;56514;51.816;-0.026;2023-03-14T10:57:05;99990.59;;;8.61;74.45
69223;BME280;56514;51.816;-0.026;2023-03-14T10:59:53;99992.03;;;8.78;70.15
69223;BME280;56514;51.816;-0.026;2023-03-14T11:11:23;100021.56;;;8.45;69.85
69223;BME280;56514;51.816;-0.026;2023-03-14T11:14:23;100027.84;;;8.55;70.88
69223;BME280;56514;51.816;-0.026;2023-03-14T11:17:20;100043.88;;;9.12;70.41
69223;BME280;56514;51.816;-0.026;2023-03-14T11:23:12;100045.69;;;9.35;67.55
69223;BME280;56514;51.816;-0.026;2023-03-14T11:26:26;100046.72;;;9.09;66.29
69223;BME280;56514;51.816;-0.026;2023-03-14T11:29:36;100061.81;;;8.94;64.68
69223;BME280;56514;51.816;-0.026;2023-03-14T11:36:04;100062.50;;;9.33;64.90
69223;BME280;56514;51.816;-0.026;2023-03-14T11:38:55;100079.03;;;9.35;66.85
69223;BME280;56514;51.816;-0.026;2023-03-14T11:41:49;100087.91;;;9.34;65.60
69223;BME280;56514;51.816;-0.026;2023-03-14T11:44:39;100092.16;;;9.47;65.54
69223;BME280;56514;51.816;-0.026;2023-03-14T11:47:39;100105.94;;;9.51;63.21
69223;BME280;56514;51.816;-0.026;2023-03-14T11:50:28;100106.09;;;9.37;63.22
69223;BME280;56514;51.816;-0.026;2023-03-14T11:53:29;100112.72;;;9.66;60.97
69223;BME280;56514;51.816;-0.026;2023-03-14T11:56:25;100100.50;;;9.99;63.21
69223;BME280;56514;51.816;-0.026;2023-03-14T11:59:38;100129.97;;;10.39;58.94
69223;BME280;56514;51.816;-0.026;2023-03-14T12:08:39;100131.91;;;10.59;60.90
69223;BME280;56514;51.816;-0.026;2023-03-14T12:11:35;100136.25;;;10.71;57.79
69223;BME280;56514;51.816;-0.026;2023-03-14T12:14:27;100128.59;;;10.68;57.87
69223;BME280;56514;51.816;-0.026;2023-03-14T12:20:18;100130.25;;;10.80;56.97
69223;BME280;56514;51.816;-0.026;2023-03-14T12:23:05;100134.53;;;10.59;58.21
69223;BME280;56514;51.816;-0.026;2023-03-14T12:26:18;100143.38;;;10.25;57.66
69223;BME280;56514;51.816;-0.026;2023-03-14T12:32:20;100159.91;;;10.38;57.09
69223;BME280;56514;51.816;-0.026;2023-03-14T12:35:44;100145.56;;;10.53;56.25
69223;BME280;56514;51.816;-0.026;2023-03-14T12:41:41;100149.44;;;10.60;55.31
69223;BME280;56514;51.816;-0.026;2023-03-14T12:47:45;100144.03;;;10.84;54.27
69223;BME280;56514;51.816;-0.026;2023-03-14T12:50:44;100155.78;;;10.80;55.59
69223;BME280;56514;51.816;-0.026;2023-03-14T13:00:16;100165.53;;;11.12;47.61
69223;BME280;56514;51.816;-0.026;2023-03-14T13:03:15;100170.88;;;11.33;50.83
69223;BME280;56514;51.816;-0.026;2023-03-14T13:06:03;100177.22;;;11.63;49.89
69223;BME280;56514;51.816;-0.026;2023-03-14T13:08:49;100186.44;;;11.69;48.06
69223;BME280;56514;51.816;-0.026;2023-03-14T13:11:40;100181.97;;;12.12;45.19
69223;BME280;56514;51.816;-0.026;2023-03-14T13:14:29;100196.09;;;12.01;44.53
69223;BME280;56514;51.816;-0.026;2023-03-14T13:17:22;100187.97;;;11.82;43.04
69223;BME280;56514;51.816;-0.026;2023-03-14T13:20:30;100201.28;;;11.92;43.69
69223;BME280;56514;51.816;-0.026;2023-03-14T13:23:25;100204.25;;;11.67;45.28
69223;BME280;56514;51.816;-0.026;2023-03-14T13:26:14;100209.41;;;11.35;45.79
69223;BME280;56514;51.816;-0.026;2023-03-14T13:29:31;100218.06;;;12.33;44.32
69223;BME280;56514;51.816;-0.026;2023-03-14T13:32:20;100209.41;;;12.11;45.78
69223;BME280;56514;51.816;-0.026;2023-03-14T13:35:15;100213.69;;;11.80;44.88
69223;BME280;56514;51.816;-0.026;2023-03-14T13:38:01;100227.72;;;12.23;44.74
69223;BME280;56514;51.816;-0.026;2023-03-14T13:40:48;100230.88;;;14.09;37.72
69223;BME280;56514;51.816;-0.026;2023-03-14T13:43:39;100221.97;;;14.67;35.58
69223;BME280;56514;51.816;-0.026;2023-03-14T13:46:25;100233.34;;;15.42;33.47
69223;BME280;56514;51.816;-0.026;2023-03-14T13:49:13;100231.47;;;14.32;35.11
69223;BME280;56514;51.816;-0.026;2023-03-14T13:52:20;100239.59;;;13.81;36.48
69223;BME280;56514;51.816;-0.026;2023-03-14T13:55:14;100232.91;;;12.87;38.41
69223;BME280;56514;51.816;-0.026;2023-03-14T13:58:00;100250.16;;;12.40;38.19
69223;BME280;56514;51.816;-0.026;2023-03-14T14:00:54;100250.81;;;11.79;38.79
69223;BME280;56514;51.816;-0.026;2023-03-14T14:03:41;100249.25;;;11.54;39.87
69223;BME280;56514;51.816;-0.026;2023-03-14T14:06:36;100253.72;;;12.18;39.30
69223;BME280;56514;51.816;-0.026;2023-03-14T14:09:37;100239.84;;;13.29;38.19
69223;BME280;56514;51.816;-0.026;2023-03-14T14:15:26;100246.22;;;14.91;35.70
69223;BME280;56514;51.816;-0.026;2023-03-14T14:18:14;100240.69;;;17.16;32.49
69223;BME280;56514;51.816;-0.026;2023-03-14T14:21:02;100242.69;;;18.95;30.27
69223;BME280;56514;51.816;-0.026;2023-03-14T14:23:48;100245.94;;;20.45;28.39
69223;BME280;56514;51.816;-0.026;2023-03-14T14:26:40;100256.44;;;21.29;26.61
69223;BME280;56514;51.816;-0.026;2023-03-14T14:29:31;100254.66;;;22.23;26.08
69223;BME280;56514;51.816;-0.026;2023-03-14T14:32:17;100262.19;;;22.34;25.20
69223;BME280;56514;51.816;-0.026;2023-03-14T14:35:02;100261.91;;;23.34;25.50
69223;BME280;56514;51.816;-0.026;2023-03-14T14:37:49;100272.84;;;23.67;23.18
69223;BME280;56514;51.816;-0.026;2023-03-14T14:40:34;100267.22;;;22.79;23.78
69223;BME280;56514;51.816;-0.026;2023-03-14T14:43:30;100261.38;;;21.25;23.65
69223;BME280;56514;51.816;-0.026;2023-03-14T14:46:20;100275.31;;;20.83;23.23
69223;BME280;56514;51.816;-0.026;2023-03-14T14:49:18;100284.50;;;20.05;23.86
69223;BME280;56514;51.816;-0.026;2023-03-14T14:52:11;100286.28;;;19.36;24.95
69223;BME280;56514;51.816;-0.026;2023-03-14T14:54:59;100286.47;;;17.11;29.06
69223;BME280;56514;51.816;-0.026;2023-03-14T14:57:51;100297.56;;;15.47;29.71
69223;BME280;56514;51.816;-0.026;2023-03-14T15:00:39;100293.03;;;14.92;31.01
69223;BME280;56514;51.816;-0.026;2023-03-14T15:03:28;100288.03;;;14.61;31.25
69223;BME280;56514;51.816;-0.026;2023-03-14T15:06:15;100296.28;;;13.80;33.38
69223;BME280;56514;51.816;-0.026;2023-03-14T15:09:00;100298.94;;;14.29;32.75
69223;BME280;56514;51.816;-0.026;2023-03-14T15:11:47;100296.59;;;15.29;31.54
69223;BME280;56514;51.816;-0.026;2023-03-14T15:14:32;100294.84;;;18.09;27.85
69223;BME280;56514;51.816;-0.026;2023-03-14T15:17:17;100295.34;;;20.12;26.18
69223;BME280;56514;51.816;-0.026;2023-03-14T15:20:03;100296.19;;;22.06;23.92
69223;BME280;56514;51.816;-0.026;2023-03-14T15:22:49;100301.69;;;21.32;23.67
69223;BME280;56514;51.816;-0.026;2023-03-14T15:25:39;100300.25;;;22.16;22.02
69223;BME280;56514;51.816;-0.026;2023-03-14T15:28:26;100289.06;;;22.34;21.22
69223;BME280;56514;51.816;-0.026;2023-03-14T15:31:16;100305.00;;;22.35;22.19
69223;BME280;56514;51.816;-0.026;2023-03-14T15:34:02;100305.16;;;22.48;22.32